createdAt,value
2022-09-10T00:05:02.260Z,15.30
2022-09-10T00:10:04.207Z,15.30
2022-09-10T00:15:06.432Z,15.20
2022-09-10T00:20:09.119Z,15.20
2022-09-10T00:25:11.844Z,15.10
2022-09-10T00:30:13.917Z,15.20
2022-09-10T00:35:15.698Z,15.10
2022-09-10T00:40:17.516Z,15.10
2022-09-10T00:45:26.743Z,15.00
2022-09-10T00:50:38.211Z,15.00
2022-09-10T00:55:42.906Z,15.00
2022-09-10T01:00:44.842Z,15.00
2022-09-10T01:05:48.780Z,14.90
2022-09-10T01:11:18.290Z,14.90
2022-09-10T01:16:46.149Z,14.80
2022-09-10T01:22:20.300Z,14.80
2022-09-10T01:27:42.971Z,14.80
2022-09-10T01:33:07.420Z,14.80
2022-09-10T01:38:22.909Z,14.70
2022-09-10T01:43:26.203Z,14.70
2022-09-10T01:48:34.709Z,14.60
2022-09-10T01:53:52.685Z,14.60
2022-09-10T01:58:59.833Z,14.60
2022-09-10T02:04:14.725Z,14.50
2022-09-10T02:09:19.013Z,14.50
2022-09-10T02:14:22.352Z,14.40
2022-09-10T02:19:46.794Z,14.40
2022-09-10T02:24:48.601Z,14.40
2022-09-10T02:29:50.316Z,14.40
2022-09-10T02:34:52.047Z,14.30
2022-09-10T02:39:55.469Z,14.30
2022-09-10T02:44:58.939Z,14.30
2022-09-10T02:50:01.991Z,14.30
2022-09-10T02:55:04.728Z,14.20
2022-09-10T03:00:08.127Z,14.20
2022-09-10T03:05:09.968Z,14.10
2022-09-10T03:10:11.793Z,14.10
2022-09-10T03:15:14.061Z,14.10
2022-09-10T03:20:15.905Z,14.00
2022-09-10T03:25:29.105Z,14.00
2022-09-10T03:30:33.986Z,14.00
2022-09-10T03:35:35.901Z,14.00
2022-09-10T03:40:37.739Z,13.90
2022-09-10T03:45:39.958Z,13.90
2022-09-10T03:50:44.093Z,13.90
2022-09-10T03:55:48.258Z,13.90
2022-09-10T04:00:51.730Z,13.90
2022-09-10T04:05:54.169Z,13.80
2022-09-10T04:11:01.890Z,13.80
2022-09-10T04:16:04.670Z,13.70
2022-09-10T04:21:08.298Z,13.70
2022-09-10T04:26:17.535Z,13.70
2022-09-10T04:31:22.153Z,13.70
2022-09-10T04:36:26.460Z,13.60
2022-09-10T04:41:28.529Z,13.60
2022-09-10T04:46:30.348Z,13.60
2022-09-10T04:51:33.946Z,13.60
2022-09-10T04:56:36.523Z,13.60
2022-09-10T05:01:39.645Z,13.50
2022-09-10T05:06:42.029Z,13.60
2022-09-10T05:11:47.042Z,13.60
2022-09-10T05:16:49.114Z,13.50
2022-09-10T05:21:51.584Z,13.60
2022-09-10T05:26:53.425Z,13.60
2022-09-10T05:31:55.298Z,13.60
2022-09-10T05:36:59.658Z,13.60
2022-09-10T05:42:02.143Z,13.70
2022-09-10T05:47:04.380Z,13.70
2022-09-10T05:52:06.296Z,13.80
2022-09-10T05:57:09.090Z,13.80
2022-09-10T06:02:23.777Z,13.90
2022-09-10T06:07:30.689Z,14.00
2022-09-10T06:12:34.154Z,14.10
2022-09-10T06:17:38.377Z,14.20
2022-09-10T06:22:41.496Z,14.30
2022-09-10T06:27:44.499Z,14.40
2022-09-10T06:32:46.408Z,14.50
2022-09-10T06:37:49.098Z,14.60
2022-09-10T06:42:51.505Z,14.70
2022-09-10T06:48:37.800Z,14.90
2022-09-10T06:53:29.300Z,15.00
2022-09-10T06:58:35.761Z,15.20
2022-09-10T07:03:38.332Z,15.40
2022-09-10T07:08:40.437Z,15.50
2022-09-10T07:13:44.850Z,15.70
2022-09-10T07:18:49.978Z,15.90
2022-09-10T07:24:01.234Z,16.10
2022-09-10T07:29:03.557Z,16.20
2022-09-10T07:34:05.615Z,16.40
2022-09-10T07:39:07.417Z,16.60
2022-09-10T07:44:12.446Z,16.80
2022-09-10T07:49:17.352Z,17.40
2022-09-10T07:54:24.730Z,17.70
2022-09-10T07:59:30.514Z,17.90
2022-09-10T08:04:37.305Z,17.80
2022-09-10T08:09:43.283Z,18.10
2022-09-10T08:14:50.796Z,18.30
2022-09-10T08:19:53.856Z,18.50
2022-09-10T08:24:56.285Z,18.60
2022-09-10T08:30:03.194Z,18.80
2022-09-10T08:35:05.849Z,18.90
2022-09-10T08:40:11.836Z,19.00
2022-09-10T08:45:22.302Z,19.10
2022-09-10T08:50:32.751Z,19.20
2022-09-10T08:55:38.047Z,19.30
2022-09-10T09:00:44.808Z,19.10
2022-09-10T09:06:01.848Z,19.50
2022-09-10T09:11:26.880Z,19.80
2022-09-10T09:16:48.122Z,20.00
2022-09-10T09:21:51.612Z,20.00
2022-09-10T09:27:02.582Z,20.10
2022-09-10T09:32:06.925Z,20.40
2022-09-10T09:37:21.397Z,20.50
2022-09-10T09:42:42.642Z,20.70
2022-09-10T09:47:46.514Z,20.70
2022-09-10T09:52:54.220Z,20.90
2022-09-10T09:58:20.975Z,21.10
2022-09-10T10:03:27.688Z,21.00
2022-09-10T10:08:41.302Z,21.00
2022-09-10T10:13:45.658Z,20.80
2022-09-10T10:18:47.969Z,20.80
2022-09-10T10:23:49.830Z,20.50
2022-09-10T10:29:17.299Z,20.70
2022-09-10T10:34:37.838Z,21.00
2022-09-10T10:40:12.073Z,21.20
2022-09-10T10:45:32.465Z,21.20
2022-09-10T10:50:40.096Z,21.50
2022-09-10T10:56:09.977Z,21.60
2022-09-10T11:01:22.164Z,21.60
2022-09-10T11:06:31.899Z,21.80
2022-09-10T11:11:45.722Z,21.90
2022-09-10T11:16:58.541Z,21.80
2022-09-10T11:22:13.517Z,21.70
2022-09-10T11:27:44.961Z,21.80
2022-09-10T11:32:59.402Z,22.00
2022-09-10T11:38:20.600Z,22.40
2022-09-10T11:43:42.283Z,22.60
2022-09-10T11:49:26.409Z,23.10
2022-09-10T11:54:31.571Z,23.10
2022-09-10T11:59:51.824Z,22.50
2022-09-10T12:05:19.895Z,22.10
2022-09-10T12:10:59.694Z,22.00
2022-09-10T12:16:09.130Z,22.20
2022-09-10T12:21:29.005Z,22.20
2022-09-10T12:26:42.709Z,22.50
2022-09-10T12:32:22.709Z,22.90
2022-09-10T12:37:30.389Z,23.10
2022-09-10T12:42:34.318Z,23.50
2022-09-10T12:47:41.486Z,23.70
2022-09-10T12:52:52.109Z,23.90
2022-09-10T12:58:11.684Z,24.10
2022-09-10T13:03:18.096Z,24.10
2022-09-10T13:08:31.911Z,24.10
2022-09-10T13:13:41.293Z,24.00
2022-09-10T13:18:43.613Z,23.40
2022-09-10T13:23:47.931Z,23.70
2022-09-10T13:28:50.327Z,24.80
2022-09-10T13:33:52.119Z,25.70
2022-09-10T13:39:15.302Z,26.20
2022-09-10T13:44:54.624Z,26.50
2022-09-10T13:50:17.935Z,26.60
2022-09-10T13:55:26.469Z,27.30
2022-09-10T14:00:34.502Z,27.20
2022-09-10T14:05:48.318Z,27.40
2022-09-10T14:10:55.824Z,26.10
2022-09-10T14:16:00.518Z,25.30
2022-09-10T14:21:03.377Z,24.90
2022-09-10T14:26:10.243Z,24.40
2022-09-10T14:31:20.748Z,23.90
2022-09-10T14:36:31.344Z,23.60
2022-09-10T14:41:35.815Z,23.30
2022-09-10T14:46:49.981Z,23.80
2022-09-10T14:51:51.746Z,24.50
2022-09-10T14:56:55.822Z,25.00
2022-09-10T15:02:00.589Z,24.70
2022-09-10T15:07:02.702Z,24.00
2022-09-10T15:12:22.563Z,22.90
2022-09-10T15:17:24.650Z,22.40
2022-09-10T15:22:28.167Z,22.60
2022-09-10T15:27:29.938Z,22.70
2022-09-10T15:32:31.784Z,22.40
2022-09-10T15:37:33.534Z,21.90
2022-09-10T15:42:35.346Z,21.90
2022-09-10T15:47:37.050Z,21.80
2022-09-10T15:52:38.732Z,21.80
2022-09-10T15:57:41.025Z,21.70
2022-09-10T16:02:44.705Z,21.90
2022-09-10T16:07:49.852Z,21.90
2022-09-10T16:12:53.140Z,21.70
2022-09-10T16:17:56.312Z,21.70
2022-09-10T16:22:59.425Z,21.50
2022-09-10T16:28:01.500Z,21.30
2022-09-10T16:33:03.229Z,21.40
2022-09-10T16:38:05.013Z,21.50
2022-09-10T16:43:06.873Z,21.20
2022-09-10T16:48:09.454Z,21.30
2022-09-10T16:53:12.135Z,21.10
2022-09-10T16:58:14.682Z,21.10
2022-09-10T17:03:16.399Z,21.00
2022-09-10T17:08:18.737Z,21.00
2022-09-10T17:13:20.456Z,20.70
2022-09-10T17:18:22.159Z,20.60
2022-09-10T17:23:23.913Z,20.50
2022-09-10T17:28:27.267Z,20.30
2022-09-10T17:33:29.419Z,20.20
2022-09-10T17:38:33.913Z,20.10
2022-09-10T17:43:37.179Z,20.00
2022-09-10T17:48:39.188Z,19.90
2022-09-10T17:53:41.326Z,19.70
2022-09-10T17:58:43.211Z,19.70
2022-09-10T18:03:45.849Z,19.60
2022-09-10T18:08:48.214Z,19.60
2022-09-10T18:13:52.514Z,19.40
2022-09-10T18:18:59.933Z,19.10
2022-09-10T18:24:06.124Z,19.00
2022-09-10T18:29:11.350Z,18.90
2022-09-10T18:34:20.819Z,18.80
2022-09-10T18:39:27.330Z,18.70
2022-09-10T18:44:33.205Z,18.70
2022-09-10T18:49:35.436Z,18.60
2022-09-10T18:54:42.515Z,18.60
2022-09-10T18:59:47.865Z,18.50
2022-09-10T19:05:10.238Z,18.50
2022-09-10T19:10:11.414Z,18.50
2022-09-10T19:15:13.128Z,18.40
2022-09-10T19:20:14.921Z,18.40
2022-09-10T19:25:16.701Z,18.30
2022-09-10T19:30:18.548Z,18.20
2022-09-10T19:35:20.384Z,18.20
2022-09-10T19:40:22.095Z,18.10
2022-09-10T19:45:23.935Z,18.00
2022-09-10T19:50:28.155Z,18.00
2022-09-10T19:55:29.929Z,17.90
2022-09-10T20:00:46.498Z,17.90
2022-09-10T20:05:49.322Z,17.90
2022-09-10T20:10:51.814Z,17.80
2022-09-10T20:15:53.901Z,17.70
2022-09-10T20:20:57.424Z,17.50
2022-09-10T20:26:08.257Z,17.30
2022-09-10T20:31:12.156Z,17.20
2022-09-10T20:36:15.986Z,17.10
2022-09-10T20:41:18.065Z,17.00
2022-09-10T20:46:24.587Z,16.90
2022-09-10T20:51:26.981Z,16.80
2022-09-10T20:56:28.945Z,16.70
2022-09-10T21:01:31.201Z,16.60
2022-09-10T21:06:34.362Z,16.60
2022-09-10T21:11:36.602Z,16.80
2022-09-10T21:16:41.370Z,16.80
2022-09-10T21:21:44.947Z,16.70
2022-09-10T21:26:46.712Z,16.80
2022-09-10T21:31:50.549Z,16.70
2022-09-10T21:36:52.266Z,16.80
2022-09-10T21:41:55.135Z,16.70
2022-09-10T21:46:56.843Z,16.70
2022-09-10T21:51:58.570Z,16.70
2022-09-10T21:57:00.283Z,16.50
2022-09-10T22:02:02.060Z,16.40
2022-09-10T22:07:04.845Z,16.50
2022-09-10T22:12:06.605Z,16.50
2022-09-10T22:17:08.300Z,16.50
2022-09-10T22:22:11.402Z,16.50
2022-09-10T22:27:13.104Z,16.40
2022-09-10T22:32:15.527Z,16.40
2022-09-10T22:37:17.893Z,16.30
2022-09-10T22:42:21.114Z,16.20
2022-09-10T22:47:22.834Z,16.20
2022-09-10T22:52:24.816Z,16.10
2022-09-10T22:57:28.356Z,16.00
2022-09-10T23:02:30.067Z,16.00
2022-09-10T23:07:31.929Z,15.90
2022-09-10T23:12:33.625Z,15.90
2022-09-10T23:17:35.304Z,15.90
2022-09-10T23:22:37.022Z,15.80
2022-09-10T23:27:38.820Z,15.80
2022-09-10T23:32:40.575Z,15.70
2022-09-10T23:37:44.119Z,15.60
2022-09-10T23:42:45.830Z,15.60
2022-09-10T23:47:48.366Z,15.50
2022-09-10T23:52:50.090Z,15.50
2022-09-10T23:57:51.787Z,15.40
